Time;durP1;ratioP1;P1;durP2;ratioP2;P2;SDS_P1;SDS_P2;PMS_P1;PMS_P2;Temp;Humidity;BMP_temperature;BMP_pressure;BME280_temperature;BME280_humidity;BME280_pressure;Samples;Min_cycle;Max_cycle;Signal;HPM_P1;HPM_P2
2022/05/06 00:01:33;;;;;;;7.83;6.10;;;10.60;99.90;;;;;;5051513;28;20201;-84
2022/05/06 00:03:59;;;;;;;13.63;5.80;;;10.60;99.90;;;;;;5049231;28;20292;-80
2022/05/06 00:06:28;;;;;;;22.67;6.73;;;10.50;99.90;;;;;;5048321;28;20213;-82
2022/05/06 00:08:56;;;;;;;8.80;6.67;;;10.50;99.90;;;;;;5047667;28;20202;-81
2022/05/06 00:11:23;;;;;;;9.07;6.80;;;10.40;99.90;;;;;;5047207;28;20217;-81
2022/05/06 00:13:52;;;;;;;11.30;7.87;;;10.40;99.90;;;;;;5048575;28;20849;-89
2022/05/06 00:16:21;;;;;;;11.57;8.13;;;10.40;99.90;;;;;;5047326;28;20640;-81
2022/05/06 00:18:49;;;;;;;13.73;9.37;;;10.50;99.90;;;;;;5049766;28;20241;-83
2022/05/06 00:21:16;;;;;;;34.70;12.70;;;10.50;99.90;;;;;;5051039;28;20202;-84
2022/05/06 00:23:43;;;;;;;21.77;12.73;;;10.50;99.90;;;;;;5049266;28;20216;-91
2022/05/06 00:26:10;;;;;;;24.93;14.23;;;10.50;99.90;;;;;;5047066;28;20563;-81
2022/05/06 00:28:37;;;;;;;24.23;13.27;;;10.60;99.90;;;;;;5047771;28;20216;-80
2022/05/06 00:31:05;;;;;;;24.60;13.57;;;10.60;99.90;;;;;;5047238;28;20293;-80
2022/05/06 00:33:33;;;;;;;46.97;16.83;;;10.60;99.90;;;;;;5047788;28;20202;-81
2022/05/06 00:36:02;;;;;;;25.17;14.97;;;10.60;99.90;;;;;;5047105;28;20198;-80
2022/05/06 00:38:29;;;;;;;27.37;14.17;;;10.70;99.90;;;;;;5047746;28;20206;-81
2022/05/06 00:40:56;;;;;;;25.40;14.60;;;10.70;99.90;;;;;;5047228;28;20657;-80
2022/05/06 00:43:24;;;;;;;25.97;15.50;;;10.70;99.90;;;;;;5047277;28;20205;-81
2022/05/06 00:45:53;;;;;;;32.83;16.60;;;10.80;99.90;;;;;;5046638;28;20236;-81
2022/05/06 00:48:24;;;;;;;35.97;20.80;;;10.80;99.90;;;;;;5047007;28;20233;-80
2022/05/06 00:50:52;;;;;;;39.73;20.57;;;10.90;99.90;;;;;;5046922;28;20217;-80
2022/05/06 00:53:19;;;;;;;37.53;20.33;;;10.90;99.90;;;;;;5046214;28;20210;-81
2022/05/06 00:55:47;;;;;;;37.73;20.93;;;10.90;99.90;;;;;;5049592;28;20784;-92
2022/05/06 00:58:15;;;;;;;47.83;22.77;;;10.90;99.90;;;;;;5051416;28;20201;-83
2022/05/06 01:00:42;;;;;;;42.97;21.00;;;11.00;99.90;;;;;;5045848;28;20202;-81
2022/05/06 01:03:09;;;;;;;40.20;19.63;;;11.00;99.90;;;;;;5046729;28;20202;-90
2022/05/06 01:05:36;;;;;;;31.10;13.80;;;11.00;99.90;;;;;;5048291;28;20228;-81
2022/05/06 01:08:05;;;;;;;27.53;13.03;;;10.90;99.90;;;;;;5045814;28;20220;-80
2022/05/06 01:10:32;;;;;;;25.23;12.47;;;10.90;99.90;;;;;;5046498;28;20194;-80
2022/05/06 01:12:59;;;;;;;26.50;12.03;;;10.90;99.90;;;;;;5046386;28;20377;-86
2022/05/06 01:15:27;;;;;;;26.43;10.67;;;10.80;99.90;;;;;;5046380;28;20206;-82
2022/05/06 01:17:57;;;;;;;27.40;10.83;;;10.80;99.90;;;;;;5046134;28;20533;-80
2022/05/06 01:20:25;;;;;;;22.50;9.77;;;10.70;99.90;;;;;;5045780;28;20210;-88
2022/05/06 01:22:56;;;;;;;19.60;9.37;;;10.70;99.90;;;;;;5048264;28;20198;-81
2022/05/06 01:25:22;;;;;;;20.20;9.47;;;10.60;99.90;;;;;;5047827;28;20245;-83
2022/05/06 01:27:55;;;;;;;23.60;12.33;;;10.50;99.90;;;;;;5046707;28;20594;-82
2022/05/06 01:30:30;;;;;;;34.03;15.87;;;10.50;99.90;;;;;;5046711;28;20201;-82
2022/05/06 01:32:58;;;;;;;29.60;14.30;;;10.50;99.90;;;;;;5048642;28;20217;-89
2022/05/06 01:35:27;;;;;;;30.40;15.10;;;10.50;99.90;;;;;;5050547;28;20208;-82
2022/05/06 01:37:59;;;;;;;34.07;15.27;;;10.50;99.90;;;;;;5048310;28;20202;-84
2022/05/06 01:40:29;;;;;;;39.03;17.30;;;10.50;99.90;;;;;;5048263;28;20902;-79
2022/05/06 01:42:58;;;;;;;40.10;18.30;;;10.60;99.90;;;;;;5047513;28;20372;-80
2022/05/06 01:45:28;;;;;;;34.87;18.97;;;10.60;99.90;;;;;;5047195;28;20229;-80
2022/05/06 01:47:56;;;;;;;49.67;21.50;;;10.60;99.90;;;;;;5026761;28;20214;-79
2022/05/06 01:50:24;;;;;;;45.23;21.07;;;10.70;99.90;;;;;;5028853;28;20207;-89
2022/05/06 01:52:52;;;;;;;36.73;20.50;;;10.70;99.90;;;;;;5047394;28;20942;-82
2022/05/06 01:55:20;;;;;;;39.93;21.00;;;10.70;99.90;;;;;;5046355;28;20285;-80
2022/05/06 01:57:47;;;;;;;33.20;17.93;;;10.70;99.90;;;;;;5047144;28;20673;-82
2022/05/06 02:00:15;;;;;;;37.03;17.90;;;10.70;99.90;;;;;;5047752;28;20213;-79
2022/05/06 02:02:42;;;;;;;33.40;17.90;;;10.70;99.90;;;;;;5047112;28;20493;-81
2022/05/06 02:05:17;;;;;;;43.00;20.57;;;10.70;99.90;;;;;;5046458;28;20509;-79
2022/05/06 02:07:44;;;;;;;36.40;17.80;;;10.70;99.90;;;;;;5047314;28;20251;-81
2022/05/06 02:10:11;;;;;;;26.97;14.40;;;10.70;99.90;;;;;;5047537;28;20209;-81
2022/05/06 02:12:39;;;;;;;21.90;11.43;;;10.70;99.90;;;;;;5045962;28;20217;-81
2022/05/06 02:15:08;;;;;;;20.40;11.23;;;10.70;99.90;;;;;;5047000;28;20861;-85
2022/05/06 02:17:35;;;;;;;18.60;10.73;;;10.70;99.90;;;;;;5046278;28;20208;-81
2022/05/06 02:20:04;;;;;;;17.53;9.37;;;10.60;99.90;;;;;;5046655;28;20194;-82
2022/05/06 02:22:34;;;;;;;17.53;8.57;;;10.60;99.90;;;;;;5047038;28;20213;-82
2022/05/06 02:25:01;;;;;;;12.60;7.70;;;10.60;99.90;;;;;;5045487;28;20256;-80
2022/05/06 02:27:27;;;;;;;14.93;8.93;;;10.50;99.90;;;;;;5046275;28;20291;-80
2022/05/06 02:35:25;;;;;;;17.30;10.93;;;10.60;99.90;;;;;;5048017;28;20550;-80
2022/05/06 02:37:52;;;;;;;20.40;12.60;;;10.50;99.90;;;;;;5046456;28;20202;-84
2022/05/06 02:40:19;;;;;;;19.67;11.07;;;10.40;99.90;;;;;;5046492;28;20194;-83
2022/05/06 02:42:46;;;;;;;20.73;11.63;;;10.30;99.90;;;;;;5046890;28;20212;-82
2022/05/06 02:45:14;;;;;;;26.40;13.13;;;10.30;99.90;;;;;;5046884;28;20226;-84
2022/05/06 02:47:41;;;;;;;22.50;12.23;;;10.30;99.90;;;;;;5046288;28;20213;-81
2022/05/06 02:50:09;;;;;;;24.40;11.53;;;10.30;99.90;;;;;;5046370;28;20210;-84
2022/05/06 02:52:36;;;;;;;24.50;12.67;;;10.30;99.90;;;;;;5046998;28;20201;-84
2022/05/06 02:55:02;;;;;;;28.63;14.37;;;10.30;99.90;;;;;;5046990;28;20202;-79
2022/05/06 02:57:29;;;;;;;26.83;14.90;;;10.30;99.90;;;;;;5046990;28;20506;-83
2022/05/06 02:59:56;;;;;;;27.37;14.53;;;10.30;99.90;;;;;;5046018;28;20206;-86
2022/05/06 03:02:24;;;;;;;29.47;14.90;;;10.40;99.90;;;;;;5047426;28;20208;-83
2022/05/06 03:04:51;;;;;;;24.23;13.63;;;10.40;99.90;;;;;;5047794;28;20228;-81
2022/05/06 03:07:18;;;;;;;27.93;15.17;;;10.40;99.90;;;;;;5047862;28;20208;-79
2022/05/06 03:09:45;;;;;;;32.37;15.93;;;10.50;99.90;;;;;;5050807;28;20225;-90
2022/05/06 03:12:12;;;;;;;25.20;14.13;;;10.50;99.90;;;;;;5052742;28;20205;-81
2022/05/06 03:14:39;;;;;;;29.77;15.80;;;10.40;99.90;;;;;;5050726;28;20201;-80
2022/05/06 03:17:05;;;;;;;38.13;19.00;;;10.40;99.90;;;;;;5050964;28;20380;-83
2022/05/06 03:19:33;;;;;;;47.70;22.17;;;10.40;99.90;;;;;;5049930;28;20237;-84
2022/05/06 03:22:01;;;;;;;48.70;22.23;;;10.40;99.90;;;;;;5050199;28;20194;-82
2022/05/06 03:24:28;;;;;;;43.20;21.67;;;10.40;99.90;;;;;;5050233;28;20489;-79
2022/05/06 03:26:55;;;;;;;42.83;20.17;;;10.50;99.90;;;;;;5049750;28;20715;-81
2022/05/06 03:29:22;;;;;;;35.07;18.57;;;10.40;99.90;;;;;;5051346;28;20248;-87
2022/05/06 03:31:49;;;;;;;37.60;17.13;;;10.50;99.90;;;;;;5050278;28;20210;-83
2022/05/06 03:34:17;;;;;;;32.60;16.73;;;10.50;99.90;;;;;;5049518;28;20217;-85
2022/05/06 03:36:45;;;;;;;33.17;17.17;;;10.50;99.90;;;;;;5049640;28;20194;-84
2022/05/06 03:39:12;;;;;;;34.40;18.20;;;10.50;99.90;;;;;;5049659;28;20212;-84
2022/05/06 03:41:39;;;;;;;34.33;18.70;;;10.50;99.90;;;;;;5050779;28;20198;-87
2022/05/06 03:44:07;;;;;;;30.13;15.03;;;10.50;99.90;;;;;;5050483;28;20194;-82
2022/05/06 03:46:34;;;;;;;26.80;14.27;;;10.40;99.90;;;;;;5050384;28;20233;-85
2022/05/06 03:49:01;;;;;;;24.93;14.10;;;10.40;99.90;;;;;;5049013;28;20210;-81
2022/05/06 03:51:28;;;;;;;24.73;13.17;;;10.40;99.90;;;;;;5049934;28;20206;-89
2022/05/06 03:53:57;;;;;;;23.00;12.60;;;10.40;99.90;;;;;;5050218;28;20202;-82
2022/05/06 03:56:25;;;;;;;21.07;12.57;;;10.40;99.90;;;;;;5048916;28;20856;-83
2022/05/06 03:58:53;;;;;;;21.43;11.70;;;10.40;99.90;;;;;;5050301;28;20245;-83
2022/05/06 04:01:20;;;;;;;20.47;11.13;;;10.40;99.90;;;;;;5050289;28;20556;-84
2022/05/06 04:03:47;;;;;;;20.27;10.90;;;10.40;99.90;;;;;;5049503;28;20213;-82
2022/05/06 04:06:14;;;;;;;16.77;9.53;;;10.40;99.90;;;;;;5050514;28;20257;-84
2022/05/06 04:08:42;;;;;;;19.20;11.47;;;10.30;99.90;;;;;;5051596;28;20206;-89
2022/05/06 04:11:11;;;;;;;23.60;11.33;;;10.30;99.90;;;;;;5051282;28;20271;-85
2022/05/06 04:13:38;;;;;;;19.30;10.77;;;10.30;99.90;;;;;;5051184;28;20193;-81
2022/05/06 04:16:06;;;;;;;25.53;11.57;;;10.30;99.90;;;;;;5048503;28;20213;-82
2022/05/06 04:18:33;;;;;;;21.60;12.10;;;10.30;99.90;;;;;;5046825;28;20323;-83
2022/05/06 04:23:45;;;;;;;25.83;13.20;;;10.30;99.90;;;;;;5051239;28;20189;-82
2022/05/06 04:26:13;;;;;;;22.30;11.10;;;10.30;99.90;;;;;;5049670;28;20229;-84
2022/05/06 04:28:40;;;;;;;19.00;10.00;;;10.40;99.90;;;;;;5050232;28;20209;-84
2022/05/06 04:31:08;;;;;;;20.47;10.93;;;10.40;99.90;;;;;;5050425;28;20194;-82
2022/05/06 04:33:35;;;;;;;20.87;11.40;;;10.40;99.90;;;;;;5049661;28;20206;-82
2022/05/06 04:36:03;;;;;;;22.40;12.20;;;10.40;99.90;;;;;;5048592;28;20317;-81
2022/05/06 04:38:30;;;;;;;27.50;13.77;;;10.40;99.90;;;;;;5048827;28;20213;-80
2022/05/06 04:40:59;;;;;;;26.07;14.57;;;10.40;99.90;;;;;;5048574;28;20217;-79
2022/05/06 04:43:28;;;;;;;29.70;14.80;;;10.40;99.90;;;;;;5048896;28;20201;-80
2022/05/06 04:45:56;;;;;;;33.10;14.83;;;10.40;99.90;;;;;;5048764;28;20260;-82
2022/05/06 04:48:24;;;;;;;27.63;14.00;;;10.50;99.90;;;;;;5049335;28;20198;-80
2022/05/06 04:50:51;;;;;;;24.30;13.43;;;10.50;99.90;;;;;;5029822;28;20206;-82
2022/05/06 04:53:18;;;;;;;23.97;13.30;;;10.50;99.90;;;;;;5029503;28;20194;-83
2022/05/06 04:55:48;;;;;;;23.10;13.60;;;10.40;99.90;;;;;;5028856;28;20203;-82
2022/05/06 04:58:16;;;;;;;21.00;10.87;;;10.50;99.90;;;;;;5041760;28;20237;-82
2022/05/06 05:00:45;;;;;;;19.60;10.50;;;10.50;99.90;;;;;;5050160;28;20198;-88
2022/05/06 05:03:12;;;;;;;21.77;12.33;;;10.50;99.90;;;;;;5054065;28;20208;-88
2022/05/06 05:05:39;;;;;;;19.40;10.53;;;10.50;99.90;;;;;;5054989;28;20198;-88
2022/05/06 05:08:08;;;;;;;22.93;13.17;;;10.50;99.90;;;;;;5054280;28;20611;-89
2022/05/06 05:10:35;;;;;;;17.70;10.67;;;10.50;99.90;;;;;;5053409;28;20210;-88
2022/05/06 05:13:01;;;;;;;21.80;12.40;;;10.50;99.90;;;;;;5054369;28;20210;-88
2022/05/06 05:15:28;;;;;;;23.53;12.07;;;10.60;99.90;;;;;;5054548;28;20214;-86
2022/05/06 05:17:57;;;;;;;23.10;11.37;;;10.60;99.90;;;;;;5052396;28;20230;-87
2022/05/06 05:20:24;;;;;;;19.33;10.50;;;10.60;99.90;;;;;;5052975;28;20206;-88
2022/05/06 05:22:50;;;;;;;20.70;11.87;;;10.70;99.90;;;;;;5051997;28;20272;-87
2022/05/06 05:25:17;;;;;;;25.10;11.63;;;10.70;99.90;;;;;;5051913;28;20206;-89
2022/05/06 05:27:44;;;;;;;20.53;11.57;;;10.70;99.90;;;;;;5052274;28;20272;-88
2022/05/06 05:30:12;;;;;;;23.13;12.17;;;10.70;99.90;;;;;;5051766;28;20212;-88
2022/05/06 05:32:40;;;;;;;20.10;11.77;;;10.80;99.90;;;;;;5033215;28;20233;-85
2022/05/06 05:35:09;;;;;;;18.00;10.60;;;10.80;99.90;;;;;;5031430;28;20226;-87
2022/05/06 05:37:35;;;;;;;27.20;14.87;;;10.90;99.90;;;;;;5031982;28;20204;-85
2022/05/06 05:40:02;;;;;;;33.60;18.67;;;11.00;99.90;;;;;;5032318;28;20209;-88
2022/05/06 05:42:29;;;;;;;37.60;20.47;;;11.00;99.90;;;;;;5051144;28;20268;-82
2022/05/06 05:50:27;;;;;;;34.80;19.17;;;11.20;99.90;;;;;;5032492;28;20193;-84
2022/05/06 05:52:55;;;;;;;38.93;20.87;;;11.30;99.90;;;;;;5032623;28;20219;-89
2022/05/06 05:55:23;;;;;;;26.73;15.83;;;11.40;99.90;;;;;;5032726;28;20574;-88
2022/05/06 05:57:49;;;;;;;25.63;14.93;;;11.40;99.90;;;;;;5045891;28;20220;-81
2022/05/06 06:00:17;;;;;;;25.87;14.53;;;11.50;99.90;;;;;;5051383;28;20573;-88
2022/05/06 06:02:44;;;;;;;27.47;17.03;;;11.60;99.90;;;;;;5051174;28;20505;-87
2022/05/06 06:05:11;;;;;;;35.57;22.03;;;11.70;99.90;;;;;;5050204;28;20210;-87
2022/05/06 06:07:39;;;;;;;33.37;20.67;;;11.80;99.90;;;;;;5050249;28;20221;-89
2022/05/06 06:10:08;;;;;;;37.33;20.47;;;11.80;99.90;;;;;;5025496;28;20938;-82
2022/05/06 06:12:35;;;;;;;28.90;15.70;;;11.90;99.90;;;;;;5046858;28;20236;-83
2022/05/06 06:15:02;;;;;;;24.90;17.00;;;11.90;99.90;;;;;;5047191;28;20275;-81
2022/05/06 06:17:29;;;;;;;28.57;18.07;;;12.00;99.90;;;;;;5046157;28;20224;-81
2022/05/06 06:19:56;;;;;;;30.67;17.93;;;12.10;99.90;;;;;;5047119;28;20186;-81
2022/05/06 06:22:23;;;;;;;34.40;18.67;;;12.20;99.90;;;;;;5046763;28;20229;-82
2022/05/06 06:24:51;;;;;;;23.73;17.03;;;12.30;99.90;;;;;;5042069;28;20218;-86
2022/05/06 06:27:18;;;;;;;25.20;15.80;;;12.50;99.90;;;;;;5046115;28;20229;-82
2022/05/06 06:29:47;;;;;;;21.17;14.83;;;12.70;99.90;;;;;;5045458;28;20198;-85
2022/05/06 06:32:14;;;;;;;24.33;15.77;;;12.80;99.90;;;;;;5045669;28;20520;-81
2022/05/06 06:34:41;;;;;;;26.10;16.03;;;12.90;99.90;;;;;;5047927;28;20205;-82
2022/05/06 06:37:08;;;;;;;26.67;15.33;;;13.00;99.90;;;;;;5046476;28;20205;-82
2022/05/06 06:39:36;;;;;;;22.10;14.77;;;13.00;99.90;;;;;;5047575;28;20201;-83
2022/05/06 06:42:05;;;;;;;18.93;13.47;;;13.20;99.90;;;;;;5047197;28;20199;-80
2022/05/06 06:44:32;;;;;;;23.23;14.00;;;13.30;99.90;;;;;;5046674;28;20210;-80
2022/05/06 06:46:59;;;;;;;22.33;13.53;;;13.40;99.90;;;;;;5046145;28;20229;-81
2022/05/06 06:49:25;;;;;;;21.27;12.43;;;13.50;99.90;;;;;;5047143;28;20194;-85
2022/05/06 06:51:52;;;;;;;16.80;10.10;;;13.40;99.90;;;;;;5047449;28;20194;-89
2022/05/06 06:54:19;;;;;;;10.43;7.23;;;13.40;99.90;;;;;;5046598;28;20216;-82
2022/05/06 06:56:46;;;;;;;12.70;7.93;;;13.40;99.90;;;;;;5046468;28;20209;-82
2022/05/06 06:59:14;;;;;;;9.03;6.70;;;13.70;99.90;;;;;;5046630;28;20198;-87
2022/05/06 07:01:41;;;;;;;8.27;5.97;;;14.10;99.90;;;;;;5048330;28;20209;-82
2022/05/06 07:04:08;;;;;;;6.93;5.37;;;14.60;99.90;;;;;;5047483;28;20220;-84
2022/05/06 07:12:03;;;;;;;7.18;3.75;;;16.30;99.90;;;;;;5039174;28;20259;-83
2022/05/06 07:14:33;;;;;;;5.45;3.58;;;16.70;99.90;;;;;;5046318;28;20619;-83
2022/05/06 07:17:00;;;;;;;4.35;3.00;;;17.20;99.90;;;;;;5047321;28;20205;-85
2022/05/06 07:19:27;;;;;;;6.68;4.30;;;17.70;99.90;;;;;;5047443;28;20226;-84
2022/05/06 07:21:53;;;;;;;4.68;3.40;;;18.00;99.90;;;;;;5047054;28;20213;-85
2022/05/06 07:24:20;;;;;;;4.53;3.30;;;18.40;99.90;;;;;;5046773;28;20206;-85
2022/05/06 07:26:48;;;;;;;6.15;3.38;;;18.80;99.90;;;;;;5045619;28;20226;-83
2022/05/06 07:29:15;;;;;;;8.38;3.33;;;19.10;99.90;;;;;;5045034;28;20272;-87
2022/05/06 07:31:43;;;;;;;5.65;3.67;;;19.20;99.90;;;;;;5046182;28;20206;-89
2022/05/06 07:34:11;;;;;;;6.40;3.30;;;19.50;99.90;;;;;;5044985;28;20289;-83
2022/05/06 07:36:41;;;;;;;4.10;3.03;;;19.70;99.90;;;;;;5045611;28;20355;-82
2022/05/06 07:39:09;;;;;;;3.78;2.50;;;20.00;99.90;;;;;;5046386;28;20202;-88
2022/05/06 07:41:36;;;;;;;4.60;2.67;;;20.30;99.90;;;;;;5045859;28;20241;-83
2022/05/06 07:44:03;;;;;;;4.35;2.28;;;20.50;99.90;;;;;;5043978;28;20202;-83
2022/05/06 07:46:29;;;;;;;3.95;2.58;;;20.80;99.90;;;;;;5044453;28;20198;-80
2022/05/06 07:48:58;;;;;;;2.60;2.40;;;21.10;99.90;;;;;;5044445;28;20198;-82
2022/05/06 07:51:24;;;;;;;2.90;2.05;;;21.30;99.90;;;;;;5043595;28;20214;-82
2022/05/06 07:53:52;;;;;;;2.38;1.98;;;21.50;99.90;;;;;;5044589;28;20213;-81
2022/05/06 07:56:19;;;;;;;2.22;1.77;;;21.60;99.90;;;;;;5049081;28;20519;-82
2022/05/06 07:58:46;;;;;;;2.75;1.63;;;21.60;99.90;;;;;;5049332;28;20873;-80
2022/05/06 08:01:13;;;;;;;1.60;1.50;;;21.90;99.90;;;;;;5043313;28;20206;-83
2022/05/06 08:06:26;;;;;;;2.00;1.52;;;22.30;99.90;;;;;;5046937;28;20332;-81
2022/05/06 08:08:52;;;;;;;1.77;1.42;;;22.50;99.90;;;;;;5046158;28;20217;-81
2022/05/06 08:11:20;;;;;;;1.35;1.23;;;22.50;99.90;;;;;;5046657;28;20216;-81
2022/05/06 08:13:49;;;;;;;1.27;1.17;;;22.80;99.90;;;;;;5047728;28;20205;-81
2022/05/06 08:16:16;;;;;;;2.22;1.33;;;22.90;99.90;;;;;;5046992;28;20300;-82
2022/05/06 08:18:42;;;;;;;2.70;1.80;;;23.10;99.90;;;;;;5046622;28;20649;-86
2022/05/06 08:21:09;;;;;;;3.20;1.77;;;23.40;99.90;;;;;;5047679;28;20213;-89
2022/05/06 08:23:37;;;;;;;2.40;1.80;;;23.50;99.90;;;;;;5042322;28;20225;-84
2022/05/06 08:26:05;;;;;;;2.63;2.00;;;23.50;99.90;;;;;;5045581;28;20736;-83
2022/05/06 08:28:32;;;;;;;2.20;2.00;;;23.40;99.90;;;;;;5046333;28;20309;-81
2022/05/06 08:30:58;;;;;;;2.58;2.13;;;23.70;99.90;;;;;;5046514;28;20714;-86
2022/05/06 08:33:26;;;;;;;4.43;1.52;;;23.90;99.90;;;;;;5046696;28;20217;-85
2022/05/06 08:35:53;;;;;;;5.13;2.13;;;24.10;99.90;;;;;;5047723;28;20218;-83
2022/05/06 08:38:21;;;;;;;3.08;2.60;;;24.20;99.90;;;;;;5047422;28;20214;-82
2022/05/06 08:40:51;;;;;;;3.60;3.15;;;24.30;99.90;;;;;;5049310;28;20198;-83
2022/05/06 08:43:18;;;;;;;5.30;3.90;;;24.40;99.90;;;;;;5049161;28;20244;-83
2022/05/06 08:51:32;;;;;;;3.75;2.70;;;24.60;99.90;;;;;;4988396;28;20550;-83
2022/05/06 08:54:01;;;;;;;3.58;3.03;;;24.70;99.90;;;;;;5005669;28;20201;-81
2022/05/06 08:56:31;;;;;;;4.25;3.85;;;24.70;99.90;;;;;;5048927;28;20696;-84
2022/05/06 08:58:58;;;;;;;5.50;2.92;;;24.70;99.90;;;;;;5047240;28;20234;-89
2022/05/06 09:01:25;;;;;;;3.65;2.97;;;24.70;99.90;;;;;;5049527;28;20680;-82
2022/05/06 09:03:52;;;;;;;5.60;3.47;;;24.70;99.90;;;;;;5049418;28;20209;-83
2022/05/06 09:06:20;;;;;;;6.93;4.80;;;24.70;99.90;;;;;;5048189;28;20214;-85
2022/05/06 09:08:49;;;;;;;6.22;4.70;;;24.80;99.90;;;;;;5048303;28;20221;-87
2022/05/06 09:11:18;;;;;;;4.95;4.47;;;24.80;99.90;;;;;;5049273;28;20202;-80
2022/05/06 09:14:06;;;;;;;5.05;4.55;;;24.90;99.90;;;;;;5047003;28;20186;-81
2022/05/06 09:16:42;;;;;;;6.22;5.43;;;25.10;99.90;;;;;;5048283;28;20213;-84
2022/05/06 09:19:14;;;;;;;7.70;6.47;;;25.40;99.90;;;;;;5047315;28;20234;-83
2022/05/06 09:21:42;;;;;;;7.53;5.07;;;25.30;99.90;;;;;;5048847;28;20198;-82
2022/05/06 09:24:17;;;;;;;5.78;5.15;;;25.40;99.90;;;;;;5047931;28;20323;-86
2022/05/06 09:26:57;;;;;;;6.47;4.72;;;25.50;99.90;;;;;;5045874;28;20696;-82
2022/05/06 09:29:29;;;;;;;5.85;5.28;;;25.60;99.90;;;;;;5047600;28;20295;-80
2022/05/06 09:32:12;;;;;;;6.70;5.95;;;25.60;99.90;;;;;;5057948;22;20271;-81
2022/05/06 09:34:39;;;;;;;7.55;6.43;;;25.50;99.90;;;;;;5086923;28;20193;-82
2022/05/06 09:37:06;;;;;;;5.50;4.95;;;25.50;99.90;;;;;;5086860;28;20232;-82
2022/05/06 09:39:32;;;;;;;7.78;6.85;;;25.50;99.90;;;;;;5087623;28;20204;-81
2022/05/06 09:42:03;;;;;;;5.97;5.43;;;25.50;99.90;;;;;;5075762;28;20205;-82
2022/05/06 09:44:33;;;;;;;8.52;7.63;;;25.60;99.90;;;;;;5067530;28;20224;-80
2022/05/06 09:47:11;;;;;;;8.10;6.97;;;25.60;99.90;;;;;;5066516;28;20288;-81
2022/05/06 09:49:39;;;;;;;9.95;8.88;;;25.60;99.90;;;;;;5065239;28;20219;-87
2022/05/06 09:52:11;;;;;;;10.43;8.02;;;25.60;99.90;;;;;;5066249;28;20711;-89
2022/05/06 09:54:39;;;;;;;8.40;7.53;;;25.50;99.90;;;;;;5067764;28;20212;-83
2022/05/06 09:57:06;;;;;;;8.30;5.80;;;25.70;99.90;;;;;;5084584;28;20243;-82
2022/05/06 09:59:36;;;;;;;9.68;8.02;;;25.80;99.90;;;;;;5087013;28;20232;-83
2022/05/06 10:02:04;;;;;;;8.75;7.85;;;25.80;99.90;;;;;;5086835;28;20213;-84
2022/05/06 10:04:31;;;;;;;8.85;6.82;;;25.70;99.90;;;;;;5085904;28;20219;-84
2022/05/06 10:07:00;;;;;;;9.88;7.28;;;25.60;99.90;;;;;;5086687;28;20213;-85
2022/05/06 10:09:29;;;;;;;9.07;7.70;;;25.60;99.90;;;;;;5073326;28;20332;-85
2022/05/06 10:11:58;;;;;;;9.10;7.68;;;25.70;99.90;;;;;;5067102;28;20208;-84
2022/05/06 10:14:26;;;;;;;8.20;7.40;;;25.70;99.90;;;;;;5066247;28;20205;-86
2022/05/06 10:16:54;;;;;;;9.32;8.18;;;25.90;99.90;;;;;;5066222;28;20209;-87
2022/05/06 10:19:26;;;;;;;7.53;6.80;;;26.00;99.90;;;;;;5066410;28;20232;-87
2022/05/06 10:21:54;;;;;;;9.77;8.77;;;26.10;99.90;;;;;;5086929;28;20243;-87
2022/05/06 10:24:21;;;;;;;6.18;5.57;;;26.10;99.90;;;;;;5087963;28;20203;-87
2022/05/06 10:26:49;;;;;;;7.90;6.20;;;26.10;99.90;;;;;;5089451;28;20220;-86
2022/05/06 10:32:26;;;;;;;8.48;6.70;;;26.20;99.90;;;;;;5050484;28;20655;-86
2022/05/06 10:35:15;;;;;;;9.48;7.97;;;26.20;99.90;;;;;;5072770;28;20627;-85
2022/05/06 10:37:44;;;;;;;7.72;6.93;;;26.10;99.90;;;;;;5073220;28;20205;-87
2022/05/06 10:40:33;;;;;;;7.82;6.78;;;26.10;99.90;;;;;;5088642;28;20201;-89
2022/05/06 10:43:00;;;;;;;7.20;6.32;;;26.10;99.90;;;;;;5089089;28;20203;-85
2022/05/06 10:45:29;;;;;;;10.07;8.93;;;26.20;99.90;;;;;;5087889;28;20212;-84
2022/05/06 10:47:58;;;;;;;9.43;8.52;;;26.20;99.90;;;;;;5087608;28;20227;-83
2022/05/06 10:50:29;;;;;;;10.38;7.68;;;26.30;99.90;;;;;;5087150;28;20212;-84
2022/05/06 10:52:57;;;;;;;7.72;6.75;;;26.20;99.90;;;;;;5087267;28;20200;-82
2022/05/06 10:55:25;;;;;;;10.02;7.22;;;26.20;99.90;;;;;;5071114;28;20819;-83
2022/05/06 10:58:01;;;;;;;12.13;8.90;;;26.20;99.90;;;;;;5070518;28;20280;-84
2022/05/06 11:00:29;;;;;;;11.75;10.43;;;26.20;99.90;;;;;;5071310;28;20197;-85
2022/05/06 11:02:59;;;;;;;8.95;8.05;;;26.20;99.90;;;;;;5082409;28;20244;-87
2022/05/06 11:05:29;;;;;;;9.75;8.80;;;26.20;99.90;;;;;;5092284;28;20201;-86
2022/05/06 11:08:07;;;;;;;10.57;9.30;;;26.40;99.90;;;;;;5081935;28;20292;-84
2022/05/06 11:10:35;;;;;;;11.38;10.25;;;26.50;99.90;;;;;;5080376;28;20221;-87
2022/05/06 11:13:07;;;;;;;9.77;8.75;;;26.50;99.90;;;;;;5080060;28;20299;-87
2022/05/06 11:15:35;;;;;;;8.18;7.25;;;26.50;99.90;;;;;;5082761;28;20204;-86
2022/05/06 11:18:05;;;;;;;8.82;7.93;;;26.40;99.90;;;;;;5077875;28;20232;-86
2022/05/06 11:20:34;;;;;;;8.85;7.35;;;26.50;99.90;;;;;;5078348;28;20213;-90
2022/05/06 11:23:02;;;;;;;9.88;7.65;;;26.50;99.90;;;;;;5076140;28;20221;-83
2022/05/06 11:25:31;;;;;;;8.90;7.88;;;26.60;99.90;;;;;;5077655;28;20228;-84
2022/05/06 11:28:00;;;;;;;10.68;8.57;;;26.60;99.90;;;;;;5080678;28;20282;-83
2022/05/06 11:30:28;;;;;;;9.90;6.20;;;26.50;99.90;;;;;;5075755;28;20213;-83
2022/05/06 11:32:56;;;;;;;14.60;11.20;;;26.50;99.90;;;;;;5082628;28;20240;-83
2022/05/06 11:35:31;;;;;;;10.35;9.30;;;26.40;99.90;;;;;;5085030;28;20217;-81
2022/05/06 11:37:58;;;;;;;11.75;9.07;;;26.40;99.90;;;;;;5077620;28;20551;-83
2022/05/06 11:40:35;;;;;;;12.82;9.68;;;26.50;99.90;;;;;;5079425;28;20551;-82
2022/05/06 11:43:05;;;;;;;8.55;7.75;;;26.40;99.90;;;;;;5078747;28;20215;-84
2022/05/06 11:48:18;;;;;;;9.65;8.65;;;26.20;99.90;;;;;;5068995;28;20314;-87
2022/05/06 11:50:51;;;;;;;10.77;7.50;;;26.10;99.90;;;;;;5082666;28;20217;-87
2022/05/06 11:53:19;;;;;;;9.50;8.60;;;26.10;99.90;;;;;;5080878;28;20201;-86
2022/05/06 11:55:47;;;;;;;10.27;8.98;;;26.10;99.90;;;;;;5070545;28;20236;-85
2022/05/06 11:58:16;;;;;;;9.60;8.60;;;25.80;99.90;;;;;;5073950;28;20220;-86
2022/05/06 12:00:45;;;;;;;10.82;9.23;;;25.70;99.90;;;;;;5073543;28;20213;-88
2022/05/06 12:03:13;;;;;;;9.10;7.50;;;25.70;99.90;;;;;;5084905;28;20266;-85
2022/05/06 12:05:41;;;;;;;11.88;10.32;;;25.70;99.90;;;;;;5076299;28;20209;-84
2022/05/06 12:08:10;;;;;;;10.55;9.23;;;25.70;99.90;;;;;;5071564;28;20264;-87
2022/05/06 12:10:38;;;;;;;9.43;8.48;;;25.80;99.90;;;;;;5078909;28;20327;-87
2022/05/06 12:13:08;;;;;;;9.05;8.15;;;25.80;99.90;;;;;;5077064;28;20220;-85
2022/05/06 12:15:37;;;;;;;9.63;7.35;;;25.90;99.90;;;;;;5078811;28;20302;-86
2022/05/06 12:18:05;;;;;;;9.02;5.60;;;25.80;99.90;;;;;;5073277;28;20255;-88
2022/05/06 12:20:34;;;;;;;10.75;6.53;;;25.80;99.90;;;;;;5075273;28;20209;-85
2022/05/06 12:23:05;;;;;;;7.78;6.95;;;25.70;99.90;;;;;;5084884;28;20397;-85
2022/05/06 12:25:36;;;;;;;8.27;7.07;;;25.60;99.90;;;;;;5075010;28;20232;-87
2022/05/06 12:28:08;;;;;;;12.25;8.45;;;25.70;99.90;;;;;;5072250;28;20229;-86
2022/05/06 12:30:38;;;;;;;7.80;7.10;;;25.70;99.90;;;;;;5069755;28;20209;-87
2022/05/06 12:33:07;;;;;;;8.43;7.07;;;25.70;99.90;;;;;;5085831;28;20989;-87
2022/05/06 12:35:55;;;;;;;6.70;4.63;;;25.70;99.90;;;;;;5091099;28;20217;-86
2022/05/06 12:38:22;;;;;;;8.52;4.93;;;25.60;99.90;;;;;;5073576;28;20223;-86
2022/05/06 12:40:52;;;;;;;7.05;5.35;;;25.50;99.90;;;;;;5072542;28;20264;-87
2022/05/06 12:43:26;;;;;;;6.70;4.75;;;25.70;99.90;;;;;;5072073;28;20574;-87
2022/05/06 12:45:55;;;;;;;6.18;4.00;;;25.70;99.90;;;;;;5071874;28;20371;-88
2022/05/06 12:51:07;;;;;;;5.97;5.38;;;25.90;99.90;;;;;;5072368;28;20228;-88
2022/05/06 12:53:34;;;;;;;5.63;4.43;;;25.90;99.90;;;;;;5072379;28;20220;-86
2022/05/06 12:56:03;;;;;;;6.40;4.28;;;25.90;99.90;;;;;;5071604;28;20775;-87
2022/05/06 12:58:30;;;;;;;5.60;4.82;;;26.00;99.90;;;;;;5088235;28;20913;-86
2022/05/06 13:00:57;;;;;;;8.38;5.15;;;26.10;99.90;;;;;;5092825;28;20196;-90
2022/05/06 13:03:27;;;;;;;6.53;4.80;;;26.00;99.90;;;;;;5092243;28;20219;-87
2022/05/06 13:05:54;;;;;;;5.63;4.65;;;25.90;99.90;;;;;;5079715;28;20652;-89
2022/05/06 13:08:21;;;;;;;4.22;3.83;;;25.80;99.90;;;;;;5069536;28;20707;-85
2022/05/06 13:10:48;;;;;;;6.45;5.10;;;25.70;99.90;;;;;;5068970;28;20224;-84
2022/05/06 13:13:16;;;;;;;6.93;5.43;;;25.60;99.90;;;;;;5068544;28;20200;-88
2022/05/06 13:15:43;;;;;;;5.95;4.45;;;25.60;99.90;;;;;;5073055;28;20200;-88
2022/05/06 13:18:12;;;;;;;4.97;4.45;;;25.70;99.90;;;;;;5079429;28;20231;-86